Aegean Navigator — SWBI — position and weather

sailwx.info

Track history (hours):
 
Tides and Currents Weather Stations Pressure Air Temp Water Temp Dewpoint Dewpoint Depression Visibility Wind Speed Wind Dir Waves Ship Positions

Aegean Navigator

Last reported at 2016-Feb-05 05:33 UTC. Time now 2016-Feb-08 02:02 UTC.
Position N 36°29' E 013°49'.

Length 274 m; draft 15.5 m.

Type: Ship. MMSI: 240634000.

Date/timePositionNaut miles runAvg speedWind from/ knotsBaromVisibWave heightAir tempDewpointWater temp
2016-Feb-05 05:33N 36°29' E 013°49'1010.4
2016-Feb-05 04:33N 36°25' E 014°01'1110.7
2016-Feb-05 03:33N 36°21' E 014°14'1110.8
2016-Feb-05 02:33N 36°17' E 014°26'1111.1
2016-Feb-05 01:33N 36°13' E 014°39'  
2016-Jan-28 23:27N 35°52' E 015°36'1413.5
2016-Jan-28 22:27N 35°57' E 015°21'1213.2
2016-Jan-28 21:33N 36°01' E 015°07'1413.6
2016-Jan-28 20:33N 36°06' E 014°52'1413.8
2016-Jan-28 19:33N 36°11' E 014°36'1313.3
2016-Jan-28 18:33N 36°17' E 014°21'1413.6
2016-Jan-28 17:33N 36°21' E 014°05'1313.4
2016-Jan-28 16:33N 36°26' E 013°49'1413.9
2016-Jan-28 15:33N 36°32' E 013°33'1413.7
2016-Jan-28 14:33N 36°37' E 013°18'1313.4
2016-Jan-28 13:33N 36°42' E 013°02'1513.6
2016-Jan-28 12:25N 36°47' E 012°44'1414.3
2016-Jan-28 11:26N 36°52' E 012°28'4513.6
2016-Jan-28 08:05N 37°11' E 011°36'18412.6
2016-Jan-27 17:29N 37°17' E 007°45'1611.9
2016-Jan-27 16:08N 37°19' E 007°24'8412.5
2016-Jan-27 09:26N 37°17' E 005°39'13613.6
2016-Jan-26 23:26N 36°58' E 002°51'11714.6
2016-Jan-26 15:25N 36°34' E 000°29'4714.7
2016-Jan-26 12:13N 36°20' W 000°27'1115.0
2016-Jan-26 11:31N 36°16' W 000°40'  
Track history (hours):
 
Tides and Currents Weather Stations Pressure Air Temp Water Temp Dewpoint Dewpoint Depression Visibility Wind Speed Wind Dir Waves Ship Positions

Aegean Navigator

Last reported at 2016-Feb-05 05:33 UTC. Time now 2016-Feb-08 02:02 UTC.
Position N 36°29' E 013°49'.

Length 274 m; draft 15.5 m.

Type: Ship. MMSI: 240634000.

Date/timePositionNaut miles runAvg speedWind from/ knotsBaromVisibWave heightAir tempDewpointWater temp
2016-Feb-05 05:33N 36°29' E 013°49'1010.4
2016-Feb-05 04:33N 36°25' E 014°01'1110.7
2016-Feb-05 03:33N 36°21' E 014°14'1110.8
2016-Feb-05 02:33N 36°17' E 014°26'1111.1
2016-Feb-05 01:33N 36°13' E 014°39'  
2016-Jan-28 23:27N 35°52' E 015°36'1413.5
2016-Jan-28 22:27N 35°57' E 015°21'1213.2
2016-Jan-28 21:33N 36°01' E 015°07'1413.6
2016-Jan-28 20:33N 36°06' E 014°52'1413.8
2016-Jan-28 19:33N 36°11' E 014°36'1313.3
2016-Jan-28 18:33N 36°17' E 014°21'1413.6
2016-Jan-28 17:33N 36°21' E 014°05'1313.4
2016-Jan-28 16:33N 36°26' E 013°49'1413.9
2016-Jan-28 15:33N 36°32' E 013°33'1413.7
2016-Jan-28 14:33N 36°37' E 013°18'1313.4
2016-Jan-28 13:33N 36°42' E 013°02'1513.6
2016-Jan-28 12:25N 36°47' E 012°44'1414.3
2016-Jan-28 11:26N 36°52' E 012°28'4513.6
2016-Jan-28 08:05N 37°11' E 011°36'18412.6
2016-Jan-27 17:29N 37°17' E 007°45'1611.9
2016-Jan-27 16:08N 37°19' E 007°24'8412.5
2016-Jan-27 09:26N 37°17' E 005°39'13613.6
2016-Jan-26 23:26N 36°58' E 002°51'11714.6
2016-Jan-26 15:25N 36°34' E 000°29'4714.7
2016-Jan-26 12:13N 36°20' W 000°27'1115.0
2016-Jan-26 11:31N 36°16' W 000°40'  

Dump ship's entire track history